createdAt,value
2023-08-08T00:01:44.279Z,13.41
2023-08-08T00:04:18.881Z,13.41
2023-08-08T00:06:45.763Z,13.40
2023-08-08T00:09:18.919Z,13.36
2023-08-08T00:11:52.823Z,13.37
2023-08-08T00:14:25.808Z,13.35
2023-08-08T00:16:58.858Z,13.33
2023-08-08T00:19:25.911Z,13.31
2023-08-08T00:21:59.121Z,13.30
2023-08-08T00:24:26.293Z,13.28
2023-08-08T00:26:59.891Z,13.27
2023-08-08T00:29:26.795Z,13.23
2023-08-08T00:32:06.955Z,13.25
2023-08-08T00:34:34.097Z,13.26
2023-08-08T00:37:07.916Z,13.24
2023-08-08T00:39:34.812Z,13.27
2023-08-08T00:42:08.955Z,13.28
2023-08-08T00:44:35.892Z,13.26
2023-08-08T00:47:08.918Z,13.27
2023-08-08T00:49:36.338Z,13.27
2023-08-08T00:52:09.910Z,13.27
2023-08-08T00:54:42.987Z,13.28
2023-08-08T00:57:09.862Z,13.28
2023-08-08T00:59:43.920Z,13.31
2023-08-08T01:02:10.945Z,13.26
2023-08-08T01:04:44.943Z,13.32
2023-08-08T01:07:18.785Z,13.36
2023-08-08T01:10:17.062Z,13.39
2023-08-08T01:12:48.264Z,13.40
2023-08-08T01:15:22.913Z,13.46
2023-08-08T01:17:50.049Z,13.48
2023-08-08T01:20:24.903Z,13.48
2023-08-08T01:23:36.923Z,13.52
2023-08-08T01:26:10.923Z,13.52
2023-08-08T01:28:37.845Z,13.54
2023-08-08T01:31:11.000Z,13.56
2023-08-08T01:33:45.036Z,13.56
2023-08-08T01:36:36.888Z,13.54
2023-08-08T01:39:13.844Z,13.56
2023-08-08T01:41:48.980Z,13.60
2023-08-08T01:44:23.951Z,13.59
2023-08-08T01:46:51.297Z,13.61
2023-08-08T01:49:24.973Z,13.63
2023-08-08T01:51:53.610Z,13.63
2023-08-08T01:54:27.917Z,13.62
2023-08-08T01:56:54.868Z,13.61
2023-08-08T01:59:27.929Z,13.53
2023-08-08T02:01:54.986Z,13.61
2023-08-08T02:04:28.964Z,13.57
2023-08-08T02:06:55.828Z,13.56
2023-08-08T02:09:28.916Z,13.55
2023-08-08T02:11:56.414Z,13.56
2023-08-08T02:14:29.949Z,13.48
2023-08-08T02:17:02.974Z,13.53
2023-08-08T02:19:36.921Z,13.51
2023-08-08T02:22:03.916Z,13.49
2023-08-08T02:24:36.926Z,13.43
2023-08-08T02:27:10.971Z,13.45
2023-08-08T02:29:37.806Z,13.46
2023-08-08T02:32:11.921Z,13.44
2023-08-08T02:34:45.728Z,13.47
2023-08-08T02:37:18.903Z,13.44
2023-08-08T02:39:46.078Z,13.42
2023-08-08T02:42:19.931Z,13.43
2023-08-08T02:44:46.782Z,13.39
2023-08-08T02:47:20.000Z,13.38
2023-08-08T02:49:46.884Z,13.39
2023-08-08T02:52:19.940Z,13.35
2023-08-08T02:54:46.811Z,13.35
2023-08-08T02:57:13.647Z,13.32
2023-08-08T02:59:46.922Z,13.33
2023-08-08T03:02:19.971Z,13.32
2023-08-08T03:04:47.051Z,13.32
2023-08-08T03:07:19.975Z,13.31
2023-08-08T03:09:52.926Z,13.33
2023-08-08T03:12:25.928Z,13.33
2023-08-08T03:14:58.930Z,13.32
2023-08-08T03:17:26.153Z,13.31
2023-08-08T03:20:00.123Z,13.29
2023-08-08T03:22:27.231Z,13.25
2023-08-08T03:25:00.936Z,13.27
2023-08-08T03:27:27.800Z,13.24
2023-08-08T03:30:01.062Z,13.25
2023-08-08T03:32:35.934Z,13.25
2023-08-08T03:35:10.012Z,13.23
2023-08-08T03:37:37.256Z,13.24
2023-08-08T03:40:11.090Z,13.22
2023-08-08T03:42:38.054Z,13.24
2023-08-08T03:45:12.051Z,13.22
2023-08-08T03:47:38.975Z,13.22
2023-08-08T03:50:14.014Z,13.21
2023-08-08T03:52:47.994Z,13.22
2023-08-08T03:55:14.934Z,13.21
2023-08-08T03:57:48.009Z,13.20
2023-08-08T04:00:15.067Z,13.21
2023-08-08T04:02:48.059Z,13.22
2023-08-08T04:05:14.973Z,13.22
2023-08-08T04:07:49.036Z,13.22
2023-08-08T04:10:16.016Z,13.23
2023-08-08T04:12:49.995Z,13.24
2023-08-08T04:15:16.912Z,13.23
2023-08-08T04:17:50.068Z,13.21
2023-08-08T04:20:17.189Z,13.28
2023-08-08T04:22:50.014Z,13.30
2023-08-08T04:25:17.069Z,13.28
2023-08-08T04:27:51.124Z,13.31
2023-08-08T04:30:17.944Z,13.29
2023-08-08T04:32:58.007Z,13.32
2023-08-08T04:35:38.118Z,13.31
2023-08-08T04:38:05.405Z,13.20
2023-08-08T04:40:39.535Z,13.27
2023-08-08T04:43:13.052Z,13.22
2023-08-08T04:45:46.061Z,13.22
2023-08-08T04:48:18.982Z,13.21
2023-08-08T04:50:55.052Z,13.22
2023-08-08T04:53:29.034Z,13.24
2023-08-08T04:55:55.899Z,13.22
2023-08-08T04:58:29.012Z,13.26
2023-08-08T05:01:03.009Z,13.27
2023-08-08T05:03:30.033Z,13.29
2023-08-08T05:06:03.008Z,13.29
2023-08-08T05:08:36.034Z,13.33
2023-08-08T05:11:02.861Z,13.37
2023-08-08T05:13:36.011Z,13.41
2023-08-08T05:16:09.040Z,13.46
2023-08-08T05:18:42.148Z,13.49
2023-08-08T05:21:14.985Z,13.55
2023-08-08T05:23:41.918Z,13.58
2023-08-08T05:26:15.029Z,13.63
2023-08-08T05:28:41.953Z,13.65
2023-08-08T05:31:15.144Z,13.67
2023-08-08T05:33:48.172Z,13.70
2023-08-08T05:36:21.031Z,13.70
2023-08-08T05:38:48.247Z,13.74
2023-08-08T05:41:22.162Z,13.75
2023-08-08T05:43:56.105Z,13.78
2023-08-08T05:46:23.212Z,13.81
2023-08-08T05:48:57.072Z,13.84
2023-08-08T05:51:30.442Z,13.83
2023-08-08T05:53:58.922Z,13.86
2023-08-08T05:56:42.043Z,13.89
2023-08-08T05:59:15.050Z,13.83
2023-08-08T06:01:42.189Z,13.91
2023-08-08T06:04:16.059Z,13.90
2023-08-08T06:06:43.016Z,13.90
2023-08-08T06:09:20.054Z,13.89
2023-08-08T06:11:46.857Z,13.87
2023-08-08T06:14:14.083Z,13.88
2023-08-08T06:16:48.075Z,13.95
2023-08-08T06:19:23.099Z,13.98
2023-08-08T06:21:50.416Z,14.15
2023-08-08T06:24:17.258Z,14.25
2023-08-08T06:26:51.144Z,14.29
2023-08-08T06:29:18.332Z,14.28
2023-08-08T06:31:52.191Z,14.25
2023-08-08T06:34:25.396Z,14.25
2023-08-08T06:36:59.004Z,14.26
2023-08-08T06:39:26.324Z,14.32
2023-08-08T06:42:00.165Z,14.36
2023-08-08T06:44:27.276Z,14.44
2023-08-08T06:47:07.063Z,14.51
2023-08-08T06:49:34.024Z,14.61
2023-08-08T06:52:07.208Z,14.68
2023-08-08T06:54:34.734Z,14.69
2023-08-08T06:57:10.034Z,14.83
2023-08-08T06:59:36.930Z,14.91
2023-08-08T07:02:10.393Z,14.97
2023-08-08T07:04:37.468Z,15.03
2023-08-08T07:07:11.098Z,15.09
2023-08-08T07:09:45.108Z,15.14
2023-08-08T07:12:12.329Z,15.23
2023-08-08T07:14:46.142Z,15.31
2023-08-08T07:17:12.983Z,15.42
2023-08-08T07:19:47.203Z,15.46
2023-08-08T07:22:14.089Z,15.46
2023-08-08T07:24:47.181Z,15.57
2023-08-08T07:27:13.985Z,15.60
2023-08-08T07:29:47.126Z,15.67
2023-08-08T07:32:34.128Z,15.75
2023-08-08T07:35:10.082Z,15.81
2023-08-08T07:37:44.085Z,15.81
2023-08-08T07:40:19.194Z,15.74
2023-08-08T07:42:59.143Z,15.78
2023-08-08T07:45:36.466Z,15.87
2023-08-08T07:48:03.608Z,16.00
2023-08-08T07:50:37.162Z,16.11
2023-08-08T07:53:10.126Z,16.23
2023-08-08T07:55:36.864Z,16.30
2023-08-08T07:58:10.098Z,16.23
2023-08-08T08:00:36.970Z,16.20
2023-08-08T08:03:11.100Z,16.19
2023-08-08T08:05:38.873Z,16.23
2023-08-08T08:08:12.059Z,16.25
2023-08-08T08:10:38.843Z,16.28
2023-08-08T08:13:12.159Z,16.34
2023-08-08T08:15:39.668Z,16.41
2023-08-08T08:18:13.145Z,16.42
2023-08-08T08:20:47.113Z,16.54
2023-08-08T08:23:14.458Z,16.63
2023-08-08T08:25:48.116Z,16.72
2023-08-08T08:28:21.185Z,16.80
2023-08-08T08:30:55.177Z,16.89
2023-08-08T08:33:28.240Z,16.92
2023-08-08T08:36:01.196Z,17.00
2023-08-08T08:38:28.078Z,17.20
2023-08-08T08:41:11.146Z,17.38
2023-08-08T08:43:52.142Z,17.44
2023-08-08T08:46:29.151Z,17.42
2023-08-08T08:48:59.360Z,17.49
2023-08-08T08:51:33.180Z,17.68
2023-08-08T08:54:00.394Z,17.91
2023-08-08T08:56:35.125Z,17.86
2023-08-08T08:59:01.972Z,17.94
2023-08-08T09:01:36.196Z,17.86
2023-08-08T09:04:04.582Z,17.81
2023-08-08T09:06:32.334Z,17.94
2023-08-08T09:09:16.522Z,18.05
2023-08-08T09:11:46.709Z,18.05
2023-08-08T09:14:29.271Z,18.10
2023-08-08T09:16:57.304Z,18.12
2023-08-08T09:19:31.087Z,18.44
2023-08-08T09:21:58.211Z,18.84
2023-08-08T09:24:32.294Z,18.93
2023-08-08T09:26:59.131Z,18.83
2023-08-08T09:29:32.275Z,18.70
2023-08-08T09:32:06.189Z,18.54
2023-08-08T09:34:40.170Z,18.43
2023-08-08T09:37:07.866Z,18.33
2023-08-08T09:39:41.176Z,18.36
2023-08-08T09:42:16.208Z,18.31
2023-08-08T09:44:44.188Z,18.24
2023-08-08T09:47:23.071Z,18.15
2023-08-08T09:49:57.154Z,18.07
2023-08-08T09:52:30.204Z,18.12
2023-08-08T09:54:57.428Z,18.24
2023-08-08T09:57:24.960Z,18.27
2023-08-08T10:00:00.279Z,18.25
2023-08-08T10:02:34.270Z,18.00
2023-08-08T10:05:09.172Z,17.80
2023-08-08T10:07:43.141Z,17.51
2023-08-08T10:10:11.266Z,16.94
2023-08-08T10:12:49.234Z,16.30
2023-08-08T10:15:16.377Z,15.89
2023-08-08T10:17:44.168Z,15.81
2023-08-08T10:20:25.230Z,15.90
2023-08-08T10:22:57.907Z,16.04
2023-08-08T10:25:35.229Z,16.36
2023-08-08T10:28:25.433Z,16.68
2023-08-08T10:31:05.220Z,16.84
2023-08-08T10:33:50.556Z,17.01
2023-08-08T10:36:24.195Z,17.14
2023-08-08T10:39:03.208Z,17.35
2023-08-08T10:42:11.508Z,17.50
2023-08-08T10:47:48.300Z,17.36
2023-08-08T10:50:27.076Z,17.12
2023-08-08T10:55:54.246Z,17.48
2023-08-08T10:58:36.668Z,17.58
2023-08-08T11:01:14.562Z,17.66
2023-08-08T11:03:51.877Z,17.98
2023-08-08T11:06:29.976Z,17.77
2023-08-08T11:09:11.131Z,17.73
2023-08-08T11:11:49.236Z,17.42
2023-08-08T11:14:25.285Z,17.01
2023-08-08T11:17:06.798Z,16.56
2023-08-08T11:19:45.169Z,16.06
2023-08-08T11:22:19.564Z,15.51
2023-08-08T11:24:46.696Z,15.29
2023-08-08T11:29:53.808Z,15.29
2023-08-08T11:32:28.654Z,15.26
2023-08-08T11:35:08.316Z,15.28
2023-08-08T11:37:35.864Z,15.27
2023-08-08T11:40:11.943Z,15.31
2023-08-08T11:42:46.578Z,15.51
2023-08-08T11:45:22.352Z,15.51
2023-08-08T11:47:58.995Z,15.63
2023-08-08T11:50:37.330Z,16.13
2023-08-08T11:53:08.750Z,16.51
2023-08-08T11:55:45.664Z,16.87
2023-08-08T11:58:16.229Z,17.35
2023-08-08T12:00:58.943Z,17.38
2023-08-08T12:03:34.167Z,17.80
2023-08-08T12:06:23.334Z,18.22
2023-08-08T12:08:52.853Z,18.39
2023-08-08T12:11:33.418Z,18.34
2023-08-08T12:14:05.918Z,18.38
2023-08-08T12:16:51.554Z,18.55
2023-08-08T12:19:22.842Z,18.52
2023-08-08T12:22:02.497Z,18.57
2023-08-08T12:24:29.639Z,18.36
2023-08-08T12:27:03.371Z,18.25
2023-08-08T12:29:40.310Z,17.97
2023-08-08T12:32:16.300Z,17.90
2023-08-08T12:34:43.412Z,17.94
2023-08-08T12:37:18.323Z,18.45
2023-08-08T12:39:54.547Z,18.81
2023-08-08T12:42:38.360Z,19.19
2023-08-08T12:45:15.430Z,19.58
2023-08-08T12:47:55.825Z,19.91
2023-08-08T12:50:29.396Z,20.21
2023-08-08T12:53:03.316Z,20.14
2023-08-08T12:55:37.439Z,20.28
2023-08-08T12:58:19.432Z,20.32
2023-08-08T13:00:54.590Z,20.28
2023-08-08T13:03:26.614Z,19.90
2023-08-08T13:06:09.492Z,19.68
2023-08-08T13:08:39.462Z,19.74
2023-08-08T13:11:16.410Z,19.89
2023-08-08T13:13:46.251Z,19.78
2023-08-08T13:16:19.426Z,19.93
2023-08-08T13:18:52.007Z,20.07
2023-08-08T13:24:14.404Z,19.95
2023-08-08T13:26:51.476Z,19.84
2023-08-08T13:29:18.627Z,19.27
2023-08-08T13:31:54.870Z,18.91
2023-08-08T13:34:22.235Z,18.68
2023-08-08T13:36:52.512Z,18.84
2023-08-08T13:39:26.354Z,19.07
2023-08-08T13:42:13.366Z,19.40
2023-08-08T13:44:40.694Z,19.57
2023-08-08T13:47:14.295Z,19.94
2023-08-08T13:52:36.518Z,20.37
2023-08-08T13:55:04.298Z,20.08
2023-08-08T13:57:31.756Z,19.83
2023-08-08T14:00:08.356Z,19.66
2023-08-08T14:02:37.802Z,19.55
2023-08-08T14:05:14.521Z,19.75
2023-08-08T14:07:41.760Z,20.02
2023-08-08T14:10:20.483Z,20.57
2023-08-08T14:12:47.830Z,20.56
2023-08-08T14:15:25.578Z,20.37
2023-08-08T14:17:59.086Z,19.85
2023-08-08T14:20:42.578Z,19.56
2023-08-08T14:23:09.738Z,19.34
2023-08-08T14:25:45.589Z,19.28
2023-08-08T14:28:14.789Z,19.85
2023-08-08T14:30:54.639Z,20.15
2023-08-08T14:33:28.426Z,20.41
2023-08-08T14:35:55.573Z,20.11
2023-08-08T14:38:33.490Z,19.99
2023-08-08T14:41:23.512Z,19.78
2023-08-08T14:43:58.606Z,19.64
2023-08-08T14:46:32.341Z,19.11
2023-08-08T14:49:09.622Z,18.88
2023-08-08T14:51:39.709Z,18.47
2023-08-08T14:54:14.455Z,18.41
2023-08-08T14:56:41.829Z,18.65
2023-08-08T14:59:15.445Z,19.12
2023-08-08T15:01:42.982Z,19.82
2023-08-08T15:04:19.627Z,20.18
2023-08-08T15:06:55.194Z,20.02
2023-08-08T15:09:28.540Z,19.88
2023-08-08T15:11:55.993Z,19.78
2023-08-08T15:14:34.495Z,19.98
2023-08-08T15:17:03.799Z,19.67
2023-08-08T15:19:39.510Z,19.50
2023-08-08T15:22:07.990Z,19.30
2023-08-08T15:24:43.432Z,19.18
2023-08-08T15:27:16.211Z,18.80
2023-08-08T15:30:14.734Z,18.82
2023-08-08T15:32:42.167Z,18.88
2023-08-08T15:35:16.572Z,18.68
2023-08-08T15:37:53.323Z,18.49
2023-08-08T15:40:34.159Z,18.90
2023-08-08T15:43:17.808Z,18.89
2023-08-08T15:45:51.616Z,18.91
2023-08-08T15:48:31.642Z,18.81
2023-08-08T15:51:10.686Z,18.64
2023-08-08T15:53:38.249Z,18.51
2023-08-08T15:56:12.389Z,18.29
2023-08-08T15:58:40.729Z,18.20
2023-08-08T16:01:10.833Z,18.10
2023-08-08T16:03:44.535Z,18.21
2023-08-08T16:06:11.736Z,18.11
2023-08-08T16:08:50.420Z,17.90
2023-08-08T16:11:19.662Z,17.85
2023-08-08T16:13:54.551Z,17.85
2023-08-08T16:16:21.739Z,17.79
2023-08-08T16:19:03.421Z,17.83
2023-08-08T16:21:30.888Z,17.69
2023-08-08T16:24:06.222Z,17.78
2023-08-08T16:26:42.481Z,17.82
2023-08-08T16:29:18.428Z,17.64
2023-08-08T16:31:53.662Z,17.68
2023-08-08T16:34:30.081Z,17.55
2023-08-08T16:37:05.984Z,17.29
2023-08-08T16:39:39.194Z,17.20
2023-08-08T16:42:16.574Z,17.14
2023-08-08T16:44:43.785Z,17.14
2023-08-08T16:47:17.440Z,16.98
2023-08-08T16:49:51.855Z,17.09
2023-08-08T16:52:29.391Z,16.83
2023-08-08T16:54:56.915Z,16.81
2023-08-08T16:57:36.456Z,16.72
2023-08-08T17:00:05.630Z,16.65
2023-08-08T17:02:43.069Z,16.76
2023-08-08T17:05:11.368Z,16.51
2023-08-08T17:07:46.744Z,16.63
2023-08-08T17:10:16.691Z,16.50
2023-08-08T17:12:50.578Z,16.48
2023-08-08T17:15:25.006Z,16.45
2023-08-08T17:18:08.603Z,16.39
2023-08-08T17:20:41.070Z,16.39
2023-08-08T17:23:17.589Z,16.45
2023-08-08T17:25:51.648Z,16.41
2023-08-08T17:28:28.542Z,16.18
2023-08-08T17:31:03.132Z,16.42
2023-08-08T17:33:33.696Z,16.23
2023-08-08T17:36:07.615Z,16.29
2023-08-08T17:38:34.799Z,16.43
2023-08-08T17:41:11.466Z,16.31
2023-08-08T17:43:47.768Z,16.16
2023-08-08T17:46:25.553Z,16.28
2023-08-08T17:48:59.637Z,16.37
2023-08-08T17:51:36.444Z,16.19
2023-08-08T17:54:04.020Z,16.16
2023-08-08T17:56:38.673Z,16.04
2023-08-08T17:59:08.151Z,15.85
2023-08-08T18:01:41.947Z,15.91
2023-08-08T18:04:16.007Z,15.52
2023-08-08T18:06:52.574Z,15.42
2023-08-08T18:09:26.584Z,15.25
2023-08-08T18:11:57.094Z,15.08
2023-08-08T18:14:31.587Z,14.92
2023-08-08T18:17:08.688Z,14.97
2023-08-08T18:19:45.543Z,14.74
2023-08-08T18:22:19.637Z,14.70
2023-08-08T18:24:53.922Z,14.64
2023-08-08T18:27:24.764Z,14.57
2023-08-08T18:29:58.647Z,14.51
2023-08-08T18:32:29.165Z,14.61
2023-08-08T18:35:03.665Z,14.47
2023-08-08T18:37:31.322Z,14.44
2023-08-08T18:40:06.650Z,14.56
2023-08-08T18:42:40.807Z,14.43
2023-08-08T18:45:16.208Z,14.36
2023-08-08T18:47:46.579Z,14.40
2023-08-08T18:50:28.722Z,14.37
2023-08-08T18:53:05.921Z,14.40
2023-08-08T18:55:40.635Z,14.30
2023-08-08T18:58:11.315Z,14.30
2023-08-08T19:00:50.184Z,14.47
2023-08-08T19:03:20.004Z,14.31
2023-08-08T19:06:00.637Z,14.46
2023-08-08T19:08:28.250Z,14.33
2023-08-08T19:11:04.592Z,14.47
2023-08-08T19:13:41.504Z,14.27
2023-08-08T19:16:09.443Z,14.47
2023-08-08T19:18:45.564Z,14.46
2023-08-08T19:21:12.973Z,14.31
2023-08-08T19:23:55.545Z,14.36
2023-08-08T19:26:23.017Z,14.36
2023-08-08T19:28:59.620Z,14.42
2023-08-08T19:31:26.878Z,14.22
2023-08-08T19:34:19.712Z,14.38
2023-08-08T19:36:53.816Z,14.32
2023-08-08T19:42:15.678Z,14.20
2023-08-08T19:44:49.582Z,14.29
2023-08-08T19:47:20.218Z,14.31
2023-08-08T19:49:54.838Z,14.29
2023-08-08T19:52:31.749Z,14.18
2023-08-08T19:54:59.073Z,14.27
2023-08-08T19:57:35.666Z,14.05
2023-08-08T20:00:07.641Z,14.04
2023-08-08T20:02:46.157Z,14.13
2023-08-08T20:05:28.867Z,14.02
2023-08-08T20:07:56.589Z,13.98
2023-08-08T20:10:33.700Z,14.05
2023-08-08T20:13:02.738Z,14.15
2023-08-08T20:15:38.790Z,13.97
2023-08-08T20:18:15.643Z,13.95
2023-08-08T20:20:43.161Z,14.13
2023-08-08T20:23:17.628Z,13.95
2023-08-08T20:25:45.469Z,14.06
2023-08-08T20:28:24.694Z,14.13
2023-08-08T20:30:55.323Z,14.11
2023-08-08T20:33:32.645Z,13.90
2023-08-08T20:36:02.322Z,14.06
2023-08-08T20:38:38.618Z,13.88
2023-08-08T20:41:09.358Z,13.91
2023-08-08T20:43:55.217Z,14.01
2023-08-08T20:46:25.822Z,13.82
2023-08-08T20:49:01.720Z,13.90
2023-08-08T20:51:38.081Z,13.85
2023-08-08T20:54:14.761Z,13.91
2023-08-08T20:59:32.784Z,13.68
2023-08-08T21:02:06.717Z,13.64
2023-08-08T21:04:43.637Z,13.65
2023-08-08T21:07:16.067Z,13.64
2023-08-08T21:09:51.574Z,13.47
2023-08-08T21:12:25.644Z,13.44
2023-08-08T21:15:01.268Z,13.48
2023-08-08T21:17:31.254Z,13.35
2023-08-08T21:20:05.650Z,13.39
2023-08-08T21:22:44.606Z,13.29
2023-08-08T21:25:17.657Z,13.32
2023-08-08T21:28:00.287Z,13.38
2023-08-08T21:30:28.059Z,13.34
2023-08-08T21:33:04.807Z,13.33
2023-08-08T21:35:33.375Z,13.23
2023-08-08T21:38:07.706Z,13.13
2023-08-08T21:40:36.754Z,13.30
2023-08-08T21:43:23.619Z,13.14
2023-08-08T21:45:51.531Z,13.23
2023-08-08T21:48:25.767Z,13.22
2023-08-08T21:50:58.407Z,13.10
2023-08-08T21:53:32.858Z,13.07
2023-08-08T21:56:10.740Z,13.07
2023-08-08T21:58:45.650Z,13.15
2023-08-08T22:01:14.872Z,12.98
2023-08-08T22:03:51.802Z,12.99
2023-08-08T22:09:07.653Z,13.14
2023-08-08T22:11:41.752Z,13.12
2023-08-08T22:14:16.666Z,12.98
2023-08-08T22:16:44.046Z,13.00
2023-08-08T22:19:20.717Z,13.09
2023-08-08T22:21:57.709Z,12.97
2023-08-08T22:24:30.615Z,13.07
2023-08-08T22:27:07.703Z,12.93
2023-08-08T22:29:35.235Z,12.97
2023-08-08T22:32:09.767Z,12.97
2023-08-08T22:34:37.044Z,13.00
2023-08-08T22:37:10.971Z,12.98
2023-08-08T22:39:47.653Z,12.92
2023-08-08T22:42:21.755Z,12.92
2023-08-08T22:45:01.797Z,12.91
2023-08-08T22:47:35.702Z,12.90
2023-08-08T22:50:13.098Z,12.87
2023-08-08T22:52:43.217Z,12.88
2023-08-08T22:55:17.906Z,12.83
2023-08-08T22:57:48.174Z,12.79
2023-08-08T23:00:23.955Z,12.85
2023-08-08T23:02:51.521Z,12.76
2023-08-08T23:05:25.922Z,12.80
2023-08-08T23:07:53.255Z,12.78
2023-08-08T23:10:29.822Z,12.84
2023-08-08T23:12:57.294Z,12.69
2023-08-08T23:15:33.832Z,12.79
2023-08-08T23:18:04.134Z,12.61
2023-08-08T23:20:39.799Z,12.62
2023-08-08T23:23:07.447Z,12.55
2023-08-08T23:25:43.656Z,12.47
2023-08-08T23:28:11.348Z,12.52
2023-08-08T23:30:44.896Z,12.50
2023-08-08T23:33:18.883Z,12.42
2023-08-08T23:35:46.367Z,12.46
2023-08-08T23:38:20.717Z,12.45
2023-08-08T23:40:48.137Z,12.47
2023-08-08T23:43:31.726Z,12.35
2023-08-08T23:46:08.106Z,12.28
2023-08-08T23:48:46.698Z,12.41
2023-08-08T23:51:15.081Z,12.29
2023-08-08T23:53:49.733Z,12.39
2023-08-08T23:56:20.279Z,12.28
2023-08-08T23:58:54.745Z,12.34
